Terminal Aerodrome Forecast
Issued by NWS Mobile, AL

Home | Current Version | Previous Version | Text Only | Print | Product List | Glossary On
Versions: 1 2 3 4 5 6 7 8 9 10 11 12 13 14
000
FTUS44 KMOB 250626 RRA
TAFMOB
TAF
KMOB 250626Z 2506/2606 14012KT P6SM SCT015 BKN200
     FM250800 14010KT P6SM BKN015
     FM251300 16014G22KT P6SM BKN025 PROB30 2515/2521 3SM TSRA
      BKN015CB
     FM252100 17015G25KT 5SM TSRA BKN025CB
      TEMPO 2521/2601 VRB25G35KT 2SM +TSRA BKN015CB
     FM260300 16007KT P6SM VCTS BKN030CB=

USA.gov is the U.S. government's official web portal to all federal, state and local government web resources and services.